sensor_id;sensor_type;location;lat;lon;timestamp;P1;durP1;ratioP1;P2;durP2;ratioP2
22778;SDS011;11556;51.194;3.800;2022-11-15T00:01:28;53.15;;;32.47;;
22778;SDS011;11556;51.194;3.800;2022-11-15T00:03:54;52.25;;;31.20;;
22778;SDS011;11556;51.194;3.800;2022-11-15T00:06:19;53.67;;;31.30;;
22778;SDS011;11556;51.194;3.800;2022-11-15T00:08:45;48.03;;;29.92;;
22778;SDS011;11556;51.194;3.800;2022-11-15T00:11:11;52.75;;;31.17;;
22778;SDS011;11556;51.194;3.800;2022-11-15T00:13:37;51.13;;;29.90;;
22778;SDS011;11556;51.194;3.800;2022-11-15T00:16:03;45.92;;;29.52;;
22778;SDS011;11556;51.194;3.800;2022-11-15T00:18:29;42.28;;;27.48;;
22778;SDS011;11556;51.194;3.800;2022-11-15T00:20:55;43.85;;;27.55;;
22778;SDS011;11556;51.194;3.800;2022-11-15T00:23:27;43.03;;;26.88;;
22778;SDS011;11556;51.194;3.800;2022-11-15T00:25:56;37.13;;;25.50;;
22778;SDS011;11556;51.194;3.800;2022-11-15T00:28:23;45.80;;;26.63;;
22778;SDS011;11556;51.194;3.800;2022-11-15T00:30:49;37.17;;;25.05;;
22778;SDS011;11556;51.194;3.800;2022-11-15T00:33:15;39.88;;;26.67;;
22778;SDS011;11556;51.194;3.800;2022-11-15T00:35:40;37.10;;;24.92;;
22778;SDS011;11556;51.194;3.800;2022-11-15T00:38:06;38.60;;;24.52;;
22778;SDS011;11556;51.194;3.800;2022-11-15T00:40:31;37.22;;;24.40;;
22778;SDS011;11556;51.194;3.800;2022-11-15T00:42:57;34.45;;;23.08;;
22778;SDS011;11556;51.194;3.800;2022-11-15T00:45:23;33.90;;;21.25;;
22778;SDS011;11556;51.194;3.800;2022-11-15T00:47:49;34.28;;;20.50;;
22778;SDS011;11556;51.194;3.800;2022-11-15T00:50:15;29.73;;;19.58;;
22778;SDS011;11556;51.194;3.800;2022-11-15T00:52:41;32.50;;;20.05;;
22778;SDS011;11556;51.194;3.800;2022-11-15T00:55:07;30.92;;;18.65;;
22778;SDS011;11556;51.194;3.800;2022-11-15T00:57:38;33.03;;;20.05;;
22778;SDS011;11556;51.194;3.800;2022-11-15T01:00:04;29.05;;;19.75;;
22778;SDS011;11556;51.194;3.800;2022-11-15T01:02:30;26.25;;;17.85;;
22778;SDS011;11556;51.194;3.800;2022-11-15T01:04:56;33.30;;;19.08;;
22778;SDS011;11556;51.194;3.800;2022-11-15T01:07:21;27.17;;;17.52;;
22778;SDS011;11556;51.194;3.800;2022-11-15T01:09:47;33.33;;;19.13;;
22778;SDS011;11556;51.194;3.800;2022-11-15T01:12:12;31.70;;;20.33;;
22778;SDS011;11556;51.194;3.800;2022-11-15T01:14:38;33.92;;;21.52;;
22778;SDS011;11556;51.194;3.800;2022-11-15T01:17:03;32.00;;;20.48;;
22778;SDS011;11556;51.194;3.800;2022-11-15T01:19:29;39.53;;;20.73;;
22778;SDS011;11556;51.194;3.800;2022-11-15T01:21:54;37.70;;;21.83;;
22778;SDS011;11556;51.194;3.800;2022-11-15T01:24:20;35.78;;;21.65;;
22778;SDS011;11556;51.194;3.800;2022-11-15T01:26:46;36.42;;;21.48;;
22778;SDS011;11556;51.194;3.800;2022-11-15T01:29:11;29.23;;;17.88;;
22778;SDS011;11556;51.194;3.800;2022-11-15T01:31:37;31.05;;;17.08;;
22778;SDS011;11556;51.194;3.800;2022-11-15T01:34:03;28.25;;;15.35;;
22778;SDS011;11556;51.194;3.800;2022-11-15T01:36:28;27.63;;;16.42;;
22778;SDS011;11556;51.194;3.800;2022-11-15T01:38:54;25.25;;;16.35;;
22778;SDS011;11556;51.194;3.800;2022-11-15T01:41:25;27.45;;;17.88;;
22778;SDS011;11556;51.194;3.800;2022-11-15T01:43:53;24.85;;;15.85;;
22778;SDS011;11556;51.194;3.800;2022-11-15T01:46:42;28.48;;;17.52;;
22778;SDS011;11556;51.194;3.800;2022-11-15T01:49:12;32.13;;;18.10;;
22778;SDS011;11556;51.194;3.800;2022-11-15T01:51:41;31.52;;;18.35;;
22778;SDS011;11556;51.194;3.800;2022-11-15T01:54:11;36.42;;;19.15;;
22778;SDS011;11556;51.194;3.800;2022-11-15T01:56:43;34.83;;;19.85;;
22778;SDS011;11556;51.194;3.800;2022-11-15T01:59:16;31.05;;;19.58;;
22778;SDS011;11556;51.194;3.800;2022-11-15T02:01:43;36.33;;;21.00;;
22778;SDS011;11556;51.194;3.800;2022-11-15T02:06:54;31.40;;;19.65;;
22778;SDS011;11556;51.194;3.800;2022-11-15T02:09:19;34.53;;;19.70;;
22778;SDS011;11556;51.194;3.800;2022-11-15T02:11:45;35.45;;;20.55;;
22778;SDS011;11556;51.194;3.800;2022-11-15T02:14:12;29.35;;;17.92;;
22778;SDS011;11556;51.194;3.800;2022-11-15T02:30:25;25.40;;;16.50;;
22778;SDS011;11556;51.194;3.800;2022-11-15T02:35:57;28.10;;;15.63;;
22778;SDS011;11556;51.194;3.800;2022-11-15T02:41:13;31.80;;;16.90;;
22778;SDS011;11556;51.194;3.800;2022-11-15T02:46:43;33.97;;;18.02;;
22778;SDS011;11556;51.194;3.800;2022-11-15T02:49:29;32.70;;;16.90;;
22778;SDS011;11556;51.194;3.800;2022-11-15T02:51:57;26.85;;;17.00;;
22778;SDS011;11556;51.194;3.800;2022-11-15T02:54:25;25.42;;;15.50;;
22778;SDS011;11556;51.194;3.800;2022-11-15T02:56:54;27.77;;;14.75;;
22778;SDS011;11556;51.194;3.800;2022-11-15T03:07:41;20.90;;;12.15;;
22778;SDS011;11556;51.194;3.800;2022-11-15T03:13:03;19.30;;;11.57;;
22778;SDS011;11556;51.194;3.800;2022-11-15T03:15:38;21.38;;;10.80;;
22778;SDS011;11556;51.194;3.800;2022-11-15T03:18:15;14.50;;;9.57;;
22778;SDS011;11556;51.194;3.800;2022-11-15T03:21:03;19.33;;;10.10;;
22778;SDS011;11556;51.194;3.800;2022-11-15T03:23:32;18.52;;;8.80;;
22778;SDS011;11556;51.194;3.800;2022-11-15T03:26:00;20.65;;;8.77;;
22778;SDS011;11556;51.194;3.800;2022-11-15T03:29:00;14.77;;;8.07;;
22778;SDS011;11556;51.194;3.800;2022-11-15T03:31:24;14.63;;;7.00;;
22778;SDS011;11556;51.194;3.800;2022-11-15T03:34:12;16.02;;;6.85;;
22778;SDS011;11556;51.194;3.800;2022-11-15T03:36:52;16.88;;;7.53;;
22778;SDS011;11556;51.194;3.800;2022-11-15T03:39:18;14.02;;;7.20;;
22778;SDS011;11556;51.194;3.800;2022-11-15T03:41:57;15.05;;;7.47;;
22778;SDS011;11556;51.194;3.800;2022-11-15T03:44:46;16.00;;;7.10;;
22778;SDS011;11556;51.194;3.800;2022-11-15T03:47:27;12.38;;;6.30;;
22778;SDS011;11556;51.194;3.800;2022-11-15T03:50:02;16.08;;;6.47;;
22778;SDS011;11556;51.194;3.800;2022-11-15T03:52:33;15.02;;;6.22;;
22778;SDS011;11556;51.194;3.800;2022-11-15T03:55:00;14.75;;;6.82;;
22778;SDS011;11556;51.194;3.800;2022-11-15T03:57:27;10.40;;;6.50;;
22778;SDS011;11556;51.194;3.800;2022-11-15T03:59:53;14.60;;;6.78;;
22778;SDS011;11556;51.194;3.800;2022-11-15T04:02:19;15.68;;;7.97;;
22778;SDS011;11556;51.194;3.800;2022-11-15T04:04:44;18.25;;;7.93;;
22778;SDS011;11556;51.194;3.800;2022-11-15T04:07:10;15.95;;;7.63;;
22778;SDS011;11556;51.194;3.800;2022-11-15T04:09:36;19.30;;;7.72;;
22778;SDS011;11556;51.194;3.800;2022-11-15T04:12:22;15.75;;;7.25;;
22778;SDS011;11556;51.194;3.800;2022-11-15T04:14:57;16.73;;;7.45;;
22778;SDS011;11556;51.194;3.800;2022-11-15T04:20:18;20.42;;;7.25;;
22778;SDS011;11556;51.194;3.800;2022-11-15T04:23:13;14.63;;;7.13;;
22778;SDS011;11556;51.194;3.800;2022-11-15T04:25:59;18.17;;;6.68;;
22778;SDS011;11556;51.194;3.800;2022-11-15T04:28:27;14.57;;;5.65;;
22778;SDS011;11556;51.194;3.800;2022-11-15T04:30:53;12.15;;;6.38;;
22778;SDS011;11556;51.194;3.800;2022-11-15T04:33:18;11.82;;;6.07;;
22778;SDS011;11556;51.194;3.800;2022-11-15T04:35:44;12.40;;;6.47;;
22778;SDS011;11556;51.194;3.800;2022-11-15T04:38:30;15.40;;;6.80;;
22778;SDS011;11556;51.194;3.800;2022-11-15T04:40:56;12.32;;;6.20;;
22778;SDS011;11556;51.194;3.800;2022-11-15T04:43:21;12.15;;;5.80;;
22778;SDS011;11556;51.194;3.800;2022-11-15T04:45:47;12.55;;;6.30;;
22778;SDS011;11556;51.194;3.800;2022-11-15T04:48:12;14.38;;;6.10;;
22778;SDS011;11556;51.194;3.800;2022-11-15T04:50:38;15.32;;;6.20;;
22778;SDS011;11556;51.194;3.800;2022-11-15T04:53:03;12.20;;;5.63;;
22778;SDS011;11556;51.194;3.800;2022-11-15T04:55:29;14.55;;;5.60;;
22778;SDS011;11556;51.194;3.800;2022-11-15T04:57:58;20.58;;;6.57;;
22778;SDS011;11556;51.194;3.800;2022-11-15T05:00:25;10.43;;;5.68;;
22778;SDS011;11556;51.194;3.800;2022-11-15T05:02:51;14.77;;;6.03;;
22778;SDS011;11556;51.194;3.800;2022-11-15T05:05:36;15.45;;;5.57;;
22778;SDS011;11556;51.194;3.800;2022-11-15T05:08:02;14.80;;;6.10;;
22778;SDS011;11556;51.194;3.800;2022-11-15T05:10:28;18.58;;;5.80;;
22778;SDS011;11556;51.194;3.800;2022-11-15T05:12:53;13.02;;;5.60;;
22778;SDS011;11556;51.194;3.800;2022-11-15T05:15:19;11.65;;;5.60;;
22778;SDS011;11556;51.194;3.800;2022-11-15T05:17:44;16.77;;;5.65;;
22778;SDS011;11556;51.194;3.800;2022-11-15T05:20:10;12.50;;;5.68;;
22778;SDS011;11556;51.194;3.800;2022-11-15T05:22:36;11.25;;;5.38;;
22778;SDS011;11556;51.194;3.800;2022-11-15T05:25:01;15.05;;;5.28;;
22778;SDS011;11556;51.194;3.800;2022-11-15T05:27:28;12.82;;;5.25;;
22778;SDS011;11556;51.194;3.800;2022-11-15T05:29:53;14.43;;;5.70;;
22778;SDS011;11556;51.194;3.800;2022-11-15T05:32:19;9.52;;;5.32;;
22778;SDS011;11556;51.194;3.800;2022-11-15T05:34:46;9.85;;;5.55;;
22778;SDS011;11556;51.194;3.800;2022-11-15T05:37:13;14.57;;;6.00;;
22778;SDS011;11556;51.194;3.800;2022-11-15T05:39:39;10.05;;;6.00;;
22778;SDS011;11556;51.194;3.800;2022-11-15T05:42:11;16.38;;;6.70;;
22778;SDS011;11556;51.194;3.800;2022-11-15T05:44:39;15.10;;;6.40;;
22778;SDS011;11556;51.194;3.800;2022-11-15T05:47:08;16.58;;;6.20;;
22778;SDS011;11556;51.194;3.800;2022-11-15T05:49:37;16.77;;;6.82;;
22778;SDS011;11556;51.194;3.800;2022-11-15T05:52:07;15.95;;;6.28;;
22778;SDS011;11556;51.194;3.800;2022-11-15T05:54:37;18.38;;;6.85;;
22778;SDS011;11556;51.194;3.800;2022-11-15T05:57:03;19.77;;;6.72;;
22778;SDS011;11556;51.194;3.800;2022-11-15T05:59:30;15.00;;;6.63;;
22778;SDS011;11556;51.194;3.800;2022-11-15T06:01:57;17.05;;;6.53;;
22778;SDS011;11556;51.194;3.800;2022-11-15T06:04:23;20.58;;;6.93;;
22778;SDS011;11556;51.194;3.800;2022-11-15T06:06:49;17.90;;;6.93;;
22778;SDS011;11556;51.194;3.800;2022-11-15T06:09:14;15.10;;;6.57;;
22778;SDS011;11556;51.194;3.800;2022-11-15T06:11:40;17.30;;;7.45;;
22778;SDS011;11556;51.194;3.800;2022-11-15T06:14:05;15.15;;;6.50;;
22778;SDS011;11556;51.194;3.800;2022-11-15T06:16:31;13.23;;;6.82;;
22778;SDS011;11556;51.194;3.800;2022-11-15T06:18:56;22.83;;;8.77;;
22778;SDS011;11556;51.194;3.800;2022-11-15T06:21:22;18.15;;;8.13;;
22778;SDS011;11556;51.194;3.800;2022-11-15T06:23:48;16.42;;;6.80;;
22778;SDS011;11556;51.194;3.800;2022-11-15T06:26:13;13.05;;;6.78;;
22778;SDS011;11556;51.194;3.800;2022-11-15T06:28:39;15.93;;;7.20;;
22778;SDS011;11556;51.194;3.800;2022-11-15T06:31:05;18.50;;;9.38;;
22778;SDS011;11556;51.194;3.800;2022-11-15T06:33:32;25.63;;;10.18;;
22778;SDS011;11556;51.194;3.800;2022-11-15T06:36:04;21.90;;;10.07;;
22778;SDS011;11556;51.194;3.800;2022-11-15T06:38:32;31.08;;;13.25;;
22778;SDS011;11556;51.194;3.800;2022-11-15T06:41:04;33.70;;;15.85;;
22778;SDS011;11556;51.194;3.800;2022-11-15T06:43:31;24.95;;;13.23;;
22778;SDS011;11556;51.194;3.800;2022-11-15T06:45:58;26.05;;;14.27;;
22778;SDS011;11556;51.194;3.800;2022-11-15T06:48:24;32.20;;;13.35;;
22778;SDS011;11556;51.194;3.800;2022-11-15T06:50:53;36.28;;;15.73;;
22778;SDS011;11556;51.194;3.800;2022-11-15T06:53:21;33.38;;;15.57;;
22778;SDS011;11556;51.194;3.800;2022-11-15T06:55:47;32.42;;;14.73;;
22778;SDS011;11556;51.194;3.800;2022-11-15T06:58:13;29.10;;;14.32;;
22778;SDS011;11556;51.194;3.800;2022-11-15T07:00:39;29.95;;;14.88;;
22778;SDS011;11556;51.194;3.800;2022-11-15T07:03:05;28.92;;;14.65;;
22778;SDS011;11556;51.194;3.800;2022-11-15T07:05:31;20.55;;;10.65;;
22778;SDS011;11556;51.194;3.800;2022-11-15T07:07:57;19.15;;;10.20;;
22778;SDS011;11556;51.194;3.800;2022-11-15T07:10:24;23.67;;;10.93;;
22778;SDS011;11556;51.194;3.800;2022-11-15T07:12:53;26.40;;;12.45;;
22778;SDS011;11556;51.194;3.800;2022-11-15T07:15:20;32.30;;;13.35;;
22778;SDS011;11556;51.194;3.800;2022-11-15T07:17:48;37.25;;;15.73;;
22778;SDS011;11556;51.194;3.800;2022-11-15T07:20:14;35.08;;;15.35;;
22778;SDS011;11556;51.194;3.800;2022-11-15T07:22:40;19.65;;;11.40;;
22778;SDS011;11556;51.194;3.800;2022-11-15T07:25:06;19.13;;;10.55;;
22778;SDS011;11556;51.194;3.800;2022-11-15T07:27:33;11.20;;;7.22;;
22778;SDS011;11556;51.194;3.800;2022-11-15T07:29:59;17.85;;;8.10;;
22778;SDS011;11556;51.194;3.800;2022-11-15T07:32:25;13.23;;;7.38;;
22778;SDS011;11556;51.194;3.800;2022-11-15T07:34:50;15.02;;;6.80;;
22778;SDS011;11556;51.194;3.800;2022-11-15T07:37:16;13.10;;;7.15;;
22778;SDS011;11556;51.194;3.800;2022-11-15T07:39:42;10.55;;;6.32;;
22778;SDS011;11556;51.194;3.800;2022-11-15T07:42:08;11.52;;;6.45;;
22778;SDS011;11556;51.194;3.800;2022-11-15T07:44:52;9.85;;;6.32;;
22778;SDS011;11556;51.194;3.800;2022-11-15T07:47:18;10.43;;;6.18;;
22778;SDS011;11556;51.194;3.800;2022-11-15T07:49:44;14.23;;;6.95;;
22778;SDS011;11556;51.194;3.800;2022-11-15T07:52:11;12.40;;;6.88;;
22778;SDS011;11556;51.194;3.800;2022-11-15T07:54:37;12.68;;;6.63;;
22778;SDS011;11556;51.194;3.800;2022-11-15T07:57:02;10.50;;;6.47;;
22778;SDS011;11556;51.194;3.800;2022-11-15T07:59:28;9.50;;;5.55;;
22778;SDS011;11556;51.194;3.800;2022-11-15T08:01:54;10.18;;;4.97;;
22778;SDS011;11556;51.194;3.800;2022-11-15T08:04:19;15.75;;;8.43;;
22778;SDS011;11556;51.194;3.800;2022-11-15T08:06:45;14.63;;;6.53;;
22778;SDS011;11556;51.194;3.800;2022-11-15T08:09:11;9.90;;;5.10;;
22778;SDS011;11556;51.194;3.800;2022-11-15T08:11:36;8.00;;;4.43;;
22778;SDS011;11556;51.194;3.800;2022-11-15T08:14:02;8.15;;;4.18;;
22778;SDS011;11556;51.194;3.800;2022-11-15T08:16:27;7.07;;;4.07;;
22778;SDS011;11556;51.194;3.800;2022-11-15T08:18:53;9.35;;;4.53;;
22778;SDS011;11556;51.194;3.800;2022-11-15T08:21:19;7.03;;;4.45;;
22778;SDS011;11556;51.194;3.800;2022-11-15T08:23:45;8.77;;;4.72;;
22778;SDS011;11556;51.194;3.800;2022-11-15T08:26:11;6.70;;;4.30;;
22778;SDS011;11556;51.194;3.800;2022-11-15T08:28:37;8.48;;;3.95;;
22778;SDS011;11556;51.194;3.800;2022-11-15T08:31:03;12.70;;;3.70;;
22778;SDS011;11556;51.194;3.800;2022-11-15T08:33:29;6.38;;;4.40;;
22778;SDS011;11556;51.194;3.800;2022-11-15T08:35:56;7.30;;;3.70;;
22778;SDS011;11556;51.194;3.800;2022-11-15T08:38:22;7.35;;;3.92;;
22778;SDS011;11556;51.194;3.800;2022-11-15T08:40:48;9.13;;;3.42;;
22778;SDS011;11556;51.194;3.800;2022-11-15T08:43:16;12.90;;;3.80;;
22778;SDS011;11556;51.194;3.800;2022-11-15T08:45:41;7.50;;;3.65;;
22778;SDS011;11556;51.194;3.800;2022-11-15T08:48:07;7.40;;;3.50;;
22778;SDS011;11556;51.194;3.800;2022-11-15T08:50:32;9.02;;;3.53;;
22778;SDS011;11556;51.194;3.800;2022-11-15T08:53:03;9.57;;;3.53;;
22778;SDS011;11556;51.194;3.800;2022-11-15T08:55:35;10.93;;;3.70;;
22778;SDS011;11556;51.194;3.800;2022-11-15T08:58:02;9.70;;;3.53;;
22778;SDS011;11556;51.194;3.800;2022-11-15T09:00:27;9.73;;;3.60;;
22778;SDS011;11556;51.194;3.800;2022-11-15T09:02:54;9.10;;;3.70;;
22778;SDS011;11556;51.194;3.800;2022-11-15T09:05:19;9.85;;;3.88;;
22778;SDS011;11556;51.194;3.800;2022-11-15T09:07:45;8.63;;;3.30;;
22778;SDS011;11556;51.194;3.800;2022-11-15T09:10:10;7.30;;;3.10;;
22778;SDS011;11556;51.194;3.800;2022-11-15T09:12:36;8.80;;;3.17;;
22778;SDS011;11556;51.194;3.800;2022-11-15T09:15:02;4.28;;;2.67;;
22778;SDS011;11556;51.194;3.800;2022-11-15T09:17:28;9.43;;;2.70;;
22778;SDS011;11556;51.194;3.800;2022-11-15T09:19:54;8.32;;;2.70;;
22778;SDS011;11556;51.194;3.800;2022-11-15T09:22:19;8.25;;;2.97;;
22778;SDS011;11556;51.194;3.800;2022-11-15T09:24:45;8.30;;;2.47;;
22778;SDS011;11556;51.194;3.800;2022-11-15T09:27:10;7.03;;;1.90;;
22778;SDS011;11556;51.194;3.800;2022-11-15T09:29:37;7.82;;;2.42;;
22778;SDS011;11556;51.194;3.800;2022-11-15T09:32:03;5.10;;;2.05;;
22778;SDS011;11556;51.194;3.800;2022-11-15T09:34:28;11.23;;;2.15;;
22778;SDS011;11556;51.194;3.800;2022-11-15T09:36:54;4.30;;;1.65;;
22778;SDS011;11556;51.194;3.800;2022-11-15T09:39:19;6.15;;;1.73;;
22778;SDS011;11556;51.194;3.800;2022-11-15T09:44:38;6.97;;;1.70;;
22778;SDS011;11556;51.194;3.800;2022-11-15T09:50:11;7.88;;;1.63;;
22778;SDS011;11556;51.194;3.800;2022-11-15T09:52:41;7.53;;;1.60;;
22778;SDS011;11556;51.194;3.800;2022-11-15T09:55:09;7.95;;;1.48;;
22778;SDS011;11556;51.194;3.800;2022-11-15T10:05:31;8.23;;;1.85;;
22778;SDS011;11556;51.194;3.800;2022-11-15T10:10:56;7.03;;;1.95;;
22778;SDS011;11556;51.194;3.800;2022-11-15T10:13:41;6.90;;;1.67;;
22778;SDS011;11556;51.194;3.800;2022-11-15T10:19:21;6.47;;;1.60;;
22778;SDS011;11556;51.194;3.800;2022-11-15T10:24:30;8.77;;;1.95;;
22778;SDS011;11556;51.194;3.800;2022-11-15T10:27:00;5.40;;;1.45;;
22778;SDS011;11556;51.194;3.800;2022-11-15T10:29:26;10.40;;;1.65;;
22778;SDS011;11556;51.194;3.800;2022-11-15T10:31:51;4.10;;;1.48;;
22778;SDS011;11556;51.194;3.800;2022-11-15T10:34:19;8.05;;;1.63;;
22778;SDS011;11556;51.194;3.800;2022-11-15T10:36:46;5.70;;;1.40;;
22778;SDS011;11556;51.194;3.800;2022-11-15T10:39:12;4.30;;;1.02;;
22778;SDS011;11556;51.194;3.800;2022-11-15T10:41:39;8.73;;;1.60;;
22778;SDS011;11556;51.194;3.800;2022-11-15T10:46:33;3.88;;;1.10;;
22778;SDS011;11556;51.194;3.800;2022-11-15T10:49:11;7.13;;;1.60;;
22778;SDS011;11556;51.194;3.800;2022-11-15T10:51:49;8.30;;;1.40;;
22778;SDS011;11556;51.194;3.800;2022-11-15T10:54:23;8.68;;;1.60;;
22778;SDS011;11556;51.194;3.800;2022-11-15T10:57:22;12.90;;;1.65;;
22778;SDS011;11556;51.194;3.800;2022-11-15T10:59:51;6.95;;;1.42;;
22778;SDS011;11556;51.194;3.800;2022-11-15T11:04:54;6.63;;;1.60;;
22778;SDS011;11556;51.194;3.800;2022-11-15T11:07:21;6.32;;;1.15;;
22778;SDS011;11556;51.194;3.800;2022-11-15T11:09:56;5.72;;;1.50;;
22778;SDS011;11556;51.194;3.800;2022-11-15T11:12:41;3.78;;;1.50;;
22778;SDS011;11556;51.194;3.800;2022-11-15T11:15:10;6.00;;;1.30;;
22778;SDS011;11556;51.194;3.800;2022-11-15T11:31:13;10.70;;;2.60;;
22778;SDS011;11556;51.194;3.800;2022-11-15T11:33:54;10.80;;;1.80;;
22778;SDS011;11556;51.194;3.800;2022-11-15T11:36:49;8.57;;;1.83;;
22778;SDS011;11556;51.194;3.800;2022-11-15T11:39:35;10.93;;;1.80;;
22778;SDS011;11556;51.194;3.800;2022-11-15T11:47:24;8.55;;;1.55;;
22778;SDS011;11556;51.194;3.800;2022-11-15T11:53:03;9.98;;;1.50;;
22778;SDS011;11556;51.194;3.800;2022-11-15T12:00:59;12.73;;;1.80;;
22778;SDS011;11556;51.194;3.800;2022-11-15T12:03:38;11.38;;;1.65;;
22778;SDS011;11556;51.194;3.800;2022-11-15T12:06:21;9.27;;;1.23;;
22778;SDS011;11556;51.194;3.800;2022-11-15T12:08:58;10.75;;;1.42;;
22778;SDS011;11556;51.194;3.800;2022-11-15T12:14:01;11.25;;;1.52;;
22778;SDS011;11556;51.194;3.800;2022-11-15T12:16:31;7.97;;;1.40;;
22778;SDS011;11556;51.194;3.800;2022-11-15T12:18:59;5.50;;;1.17;;
22778;SDS011;11556;51.194;3.800;2022-11-15T12:24:20;8.80;;;1.33;;
22778;SDS011;11556;51.194;3.800;2022-11-15T12:26:57;7.30;;;1.27;;
22778;SDS011;11556;51.194;3.800;2022-11-15T12:29:38;4.50;;;1.10;;
22778;SDS011;11556;51.194;3.800;2022-11-15T12:32:14;3.63;;;1.02;;
22778;SDS011;11556;51.194;3.800;2022-11-15T12:34:48;7.30;;;1.30;;
22778;SDS011;11556;51.194;3.800;2022-11-15T12:42:57;11.20;;;1.50;;
22778;SDS011;11556;51.194;3.800;2022-11-15T13:06:56;7.38;;;2.65;;
22778;SDS011;11556;51.194;3.800;2022-11-15T13:12:47;3.58;;;1.10;;
22778;SDS011;11556;51.194;3.800;2022-11-15T13:14:54;5.28;;;1.35;;
22778;SDS011;11556;51.194;3.800;2022-11-15T13:19:59;8.63;;;1.73;;
22778;SDS011;11556;51.194;3.800;2022-11-15T13:22:26;5.97;;;1.50;;
22778;SDS011;11556;51.194;3.800;2022-11-15T13:33:17;4.85;;;1.55;;
22778;SDS011;11556;51.194;3.800;2022-11-15T13:35:49;5.95;;;1.30;;
22778;SDS011;11556;51.194;3.800;2022-11-15T13:38:18;6.57;;;1.10;;
22778;SDS011;11556;51.194;3.800;2022-11-15T13:40:52;3.78;;;1.30;;
22778;SDS011;11556;51.194;3.800;2022-11-15T13:48:39;3.97;;;1.40;;
22778;SDS011;11556;51.194;3.800;2022-11-15T13:51:15;8.07;;;1.90;;
22778;SDS011;11556;51.194;3.800;2022-11-15T13:57:19;3.85;;;1.65;;
22778;SDS011;11556;51.194;3.800;2022-11-15T13:59:48;5.68;;;2.22;;
22778;SDS011;11556;51.194;3.800;2022-11-15T14:02:21;8.55;;;2.13;;
22778;SDS011;11556;51.194;3.800;2022-11-15T14:04:52;10.85;;;2.05;;
22778;SDS011;11556;51.194;3.800;2022-11-15T14:07:21;7.70;;;1.88;;
22778;SDS011;11556;51.194;3.800;2022-11-15T14:09:48;9.20;;;2.20;;
22778;SDS011;11556;51.194;3.800;2022-11-15T14:17:58;6.10;;;2.17;;
22778;SDS011;11556;51.194;3.800;2022-11-15T14:22:54;4.38;;;1.70;;
22778;SDS011;11556;51.194;3.800;2022-11-15T14:25:31;4.03;;;1.80;;
22778;SDS011;11556;51.194;3.800;2022-11-15T14:28:15;5.38;;;1.70;;
22778;SDS011;11556;51.194;3.800;2022-11-15T14:30:53;6.18;;;1.85;;
22778;SDS011;11556;51.194;3.800;2022-11-15T14:35:47;4.15;;;2.03;;
22778;SDS011;11556;51.194;3.800;2022-11-15T14:38:13;8.27;;;2.30;;
22778;SDS011;11556;51.194;3.800;2022-11-15T14:40:39;4.15;;;2.00;;
22778;SDS011;11556;51.194;3.800;2022-11-15T14:43:07;6.47;;;2.45;;
22778;SDS011;11556;51.194;3.800;2022-11-15T14:45:35;3.67;;;2.08;;
22778;SDS011;11556;51.194;3.800;2022-11-15T14:48:01;4.20;;;2.20;;
22778;SDS011;11556;51.194;3.800;2022-11-15T14:50:26;5.22;;;2.20;;
22778;SDS011;11556;51.194;3.800;2022-11-15T14:52:53;4.88;;;2.65;;
22778;SDS011;11556;51.194;3.800;2022-11-15T14:55:22;3.75;;;2.00;;
22778;SDS011;11556;51.194;3.800;2022-11-15T14:57:50;9.57;;;2.53;;
22778;SDS011;11556;51.194;3.800;2022-11-15T15:00:17;7.93;;;3.00;;
22778;SDS011;11556;51.194;3.800;2022-11-15T15:02:51;7.72;;;2.70;;
22778;SDS011;11556;51.194;3.800;2022-11-15T15:05:20;7.82;;;3.20;;
22778;SDS011;11556;51.194;3.800;2022-11-15T15:07:47;6.18;;;2.90;;
22778;SDS011;11556;51.194;3.800;2022-11-15T15:10:13;6.53;;;3.30;;
22778;SDS011;11556;51.194;3.800;2022-11-15T15:12:39;5.97;;;3.00;;
22778;SDS011;11556;51.194;3.800;2022-11-15T15:15:05;8.18;;;3.60;;
22778;SDS011;11556;51.194;3.800;2022-11-15T15:17:36;11.00;;;4.00;;
22778;SDS011;11556;51.194;3.800;2022-11-15T15:20:02;6.68;;;3.45;;
22778;SDS011;11556;51.194;3.800;2022-11-15T15:22:28;9.43;;;3.95;;
22778;SDS011;11556;51.194;3.800;2022-11-15T15:24:55;9.38;;;3.92;;
22778;SDS011;11556;51.194;3.800;2022-11-15T15:27:20;7.28;;;3.80;;
22778;SDS011;11556;51.194;3.800;2022-11-15T15:29:46;8.48;;;3.70;;
22778;SDS011;11556;51.194;3.800;2022-11-15T15:32:11;7.95;;;4.10;;
22778;SDS011;11556;51.194;3.800;2022-11-15T15:34:38;8.32;;;3.60;;
22778;SDS011;11556;51.194;3.800;2022-11-15T15:39:52;8.05;;;4.35;;
22778;SDS011;11556;51.194;3.800;2022-11-15T15:42:19;6.10;;;3.90;;
22778;SDS011;11556;51.194;3.800;2022-11-15T15:44:46;9.88;;;4.53;;
22778;SDS011;11556;51.194;3.800;2022-11-15T15:47:16;6.85;;;4.22;;
22778;SDS011;11556;51.194;3.800;2022-11-15T15:49:47;9.00;;;4.72;;
22778;SDS011;11556;51.194;3.800;2022-11-15T15:52:14;6.15;;;4.32;;
22778;SDS011;11556;51.194;3.800;2022-11-15T15:54:40;7.18;;;4.70;;
22778;SDS011;11556;51.194;3.800;2022-11-15T15:57:06;6.38;;;4.40;;
22778;SDS011;11556;51.194;3.800;2022-11-15T15:59:32;8.50;;;4.82;;
22778;SDS011;11556;51.194;3.800;2022-11-15T16:01:58;7.40;;;4.68;;
22778;SDS011;11556;51.194;3.800;2022-11-15T16:04:24;9.23;;;5.30;;
22778;SDS011;11556;51.194;3.800;2022-11-15T16:06:49;8.00;;;4.45;;
22778;SDS011;11556;51.194;3.800;2022-11-15T16:09:18;7.47;;;5.00;;
22778;SDS011;11556;51.194;3.800;2022-11-15T16:12:04;9.80;;;5.72;;
22778;SDS011;11556;51.194;3.800;2022-11-15T16:14:30;9.43;;;5.50;;
22778;SDS011;11556;51.194;3.800;2022-11-15T16:16:56;10.30;;;5.60;;
22778;SDS011;11556;51.194;3.800;2022-11-15T16:19:22;8.48;;;6.00;;
22778;SDS011;11556;51.194;3.800;2022-11-15T16:21:47;8.85;;;5.65;;
22778;SDS011;11556;51.194;3.800;2022-11-15T16:24:13;11.32;;;6.45;;
22778;SDS011;11556;51.194;3.800;2022-11-15T16:26:39;10.27;;;6.47;;
22778;SDS011;11556;51.194;3.800;2022-11-15T16:29:04;10.20;;;6.15;;
22778;SDS011;11556;51.194;3.800;2022-11-15T16:31:31;10.05;;;6.47;;
22778;SDS011;11556;51.194;3.800;2022-11-15T16:33:57;7.60;;;6.00;;
22778;SDS011;11556;51.194;3.800;2022-11-15T16:36:24;11.18;;;6.45;;
22778;SDS011;11556;51.194;3.800;2022-11-15T16:38:51;9.52;;;5.72;;
22778;SDS011;11556;51.194;3.800;2022-11-15T16:41:17;6.78;;;5.78;;
22778;SDS011;11556;51.194;3.800;2022-11-15T16:43:49;9.27;;;6.97;;
22778;SDS011;11556;51.194;3.800;2022-11-15T16:48:45;10.68;;;6.93;;
22778;SDS011;11556;51.194;3.800;2022-11-15T16:51:12;7.03;;;6.32;;
22778;SDS011;11556;51.194;3.800;2022-11-15T16:53:38;10.48;;;6.57;;
22778;SDS011;11556;51.194;3.800;2022-11-15T16:56:12;8.13;;;6.07;;
22778;SDS011;11556;51.194;3.800;2022-11-15T16:58:51;12.32;;;6.78;;
22778;SDS011;11556;51.194;3.800;2022-11-15T17:01:21;11.15;;;7.10;;
22778;SDS011;11556;51.194;3.800;2022-11-15T17:03:48;8.32;;;6.78;;
22778;SDS011;11556;51.194;3.800;2022-11-15T17:06:14;9.38;;;6.75;;
22778;SDS011;11556;51.194;3.800;2022-11-15T17:08:39;9.15;;;6.60;;
22778;SDS011;11556;51.194;3.800;2022-11-15T17:11:06;9.32;;;6.45;;
22778;SDS011;11556;51.194;3.800;2022-11-15T17:13:32;11.98;;;7.60;;
22778;SDS011;11556;51.194;3.800;2022-11-15T17:16:04;9.88;;;8.05;;
22778;SDS011;11556;51.194;3.800;2022-11-15T17:18:32;10.60;;;7.40;;
22778;SDS011;11556;51.194;3.800;2022-11-15T17:21:02;12.23;;;7.97;;
22778;SDS011;11556;51.194;3.800;2022-11-15T17:23:38;12.48;;;7.80;;
22778;SDS011;11556;51.194;3.800;2022-11-15T17:26:04;12.07;;;7.65;;
22778;SDS011;11556;51.194;3.800;2022-11-15T17:28:30;25.50;;;13.93;;
22778;SDS011;11556;51.194;3.800;2022-11-15T17:30:56;16.77;;;10.18;;